sensor_id;sensor_type;location;lat;lon;timestamp;temperature;humidity
66373;SHT30;53168;51.146;17.120;2022-08-19T00:01:25;25.41;58.76
66373;SHT30;53168;51.146;17.120;2022-08-19T00:04:06;25.39;58.79
66373;SHT30;53168;51.146;17.120;2022-08-19T00:06:43;25.38;58.81
66373;SHT30;53168;51.146;17.120;2022-08-19T00:09:19;25.36;58.73
66373;SHT30;53168;51.146;17.120;2022-08-19T00:11:55;25.35;58.83
66373;SHT30;53168;51.146;17.120;2022-08-19T00:14:30;25.33;58.89
66373;SHT30;53168;51.146;17.120;2022-08-19T00:17:03;25.32;58.81
66373;SHT30;53168;51.146;17.120;2022-08-19T00:19:38;25.28;58.91
66373;SHT30;53168;51.146;17.120;2022-08-19T00:22:12;25.27;58.99
66373;SHT30;53168;51.146;17.120;2022-08-19T00:24:47;25.22;59.22
66373;SHT30;53168;51.146;17.120;2022-08-19T00:27:20;25.15;59.35
66373;SHT30;53168;51.146;17.120;2022-08-19T00:29:55;25.06;59.68
66373;SHT30;53168;51.146;17.120;2022-08-19T00:32:30;24.99;59.64
66373;SHT30;53168;51.146;17.120;2022-08-19T00:35:05;24.91;59.92
66373;SHT30;53168;51.146;17.120;2022-08-19T00:37:40;24.82;60.13
66373;SHT30;53168;51.146;17.120;2022-08-19T00:40:13;24.73;60.36
66373;SHT30;53168;51.146;17.120;2022-08-19T00:42:48;24.63;60.55
66373;SHT30;53168;51.146;17.120;2022-08-19T00:45:24;24.56;60.57
66373;SHT30;53168;51.146;17.120;2022-08-19T00:48:04;24.50;60.80
66373;SHT30;53168;51.146;17.120;2022-08-19T00:50:43;24.45;60.98
66373;SHT30;53168;51.146;17.120;2022-08-19T00:56:08;24.40;61.05
66373;SHT30;53168;51.146;17.120;2022-08-19T00:58:42;24.39;61.03
66373;SHT30;53168;51.146;17.120;2022-08-19T01:01:15;24.36;61.22
66373;SHT30;53168;51.146;17.120;2022-08-19T01:03:49;24.35;61.12
66373;SHT30;53168;51.146;17.120;2022-08-19T01:06:26;24.36;61.24
66373;SHT30;53168;51.146;17.120;2022-08-19T01:09:04;24.35;61.41
66373;SHT30;53168;51.146;17.120;2022-08-19T01:11:40;24.35;61.55
66373;SHT30;53168;51.146;17.120;2022-08-19T01:14:15;24.34;61.57
66373;SHT30;53168;51.146;17.120;2022-08-19T01:16:50;24.34;61.79
66373;SHT30;53168;51.146;17.120;2022-08-19T01:19:27;24.35;62.09
66373;SHT30;53168;51.146;17.120;2022-08-19T01:22:13;24.31;62.19
66373;SHT30;53168;51.146;17.120;2022-08-19T01:24:58;24.28;62.56
66373;SHT30;53168;51.146;17.120;2022-08-19T01:27:44;24.24;62.52
66373;SHT30;53168;51.146;17.120;2022-08-19T01:30:22;24.22;62.41
66373;SHT30;53168;51.146;17.120;2022-08-19T01:33:02;24.20;62.49
66373;SHT30;53168;51.146;17.120;2022-08-19T01:35:35;24.18;62.66
66373;SHT30;53168;51.146;17.120;2022-08-19T01:38:18;24.15;62.82
66373;SHT30;53168;51.146;17.120;2022-08-19T01:40:57;24.11;62.86
66373;SHT30;53168;51.146;17.120;2022-08-19T01:43:38;24.06;62.73
66373;SHT30;53168;51.146;17.120;2022-08-19T01:46:32;24.03;62.88
66373;SHT30;53168;51.146;17.120;2022-08-19T01:49:06;24.01;62.73
66373;SHT30;53168;51.146;17.120;2022-08-19T01:51:40;24.00;62.94
66373;SHT30;53168;51.146;17.120;2022-08-19T01:54:15;23.99;62.58
66373;SHT30;53168;51.146;17.120;2022-08-19T01:56:58;23.98;62.75
66373;SHT30;53168;51.146;17.120;2022-08-19T01:59:38;23.97;62.89
66373;SHT30;53168;51.146;17.120;2022-08-19T02:02:13;23.93;62.95
66373;SHT30;53168;51.146;17.120;2022-08-19T02:04:46;23.91;63.01
66373;SHT30;53168;51.146;17.120;2022-08-19T02:07:20;23.87;62.91
66373;SHT30;53168;51.146;17.120;2022-08-19T02:09:53;23.83;62.93
66373;SHT30;53168;51.146;17.120;2022-08-19T02:12:31;23.79;63.17
66373;SHT30;53168;51.146;17.120;2022-08-19T02:15:06;23.73;63.12
66373;SHT30;53168;51.146;17.120;2022-08-19T02:17:41;23.69;63.35
66373;SHT30;53168;51.146;17.120;2022-08-19T02:20:15;23.66;63.31
66373;SHT30;53168;51.146;17.120;2022-08-19T02:22:49;23.65;63.36
66373;SHT30;53168;51.146;17.120;2022-08-19T02:25:23;23.63;63.44
66373;SHT30;53168;51.146;17.120;2022-08-19T02:27:57;23.59;63.50
66373;SHT30;53168;51.146;17.120;2022-08-19T02:30:30;23.54;63.84
66373;SHT30;53168;51.146;17.120;2022-08-19T02:33:04;23.49;63.94
66373;SHT30;53168;51.146;17.120;2022-08-19T02:35:37;23.41;64.33
66373;SHT30;53168;51.146;17.120;2022-08-19T02:38:14;23.36;64.25
66373;SHT30;53168;51.146;17.120;2022-08-19T02:40:59;23.32;64.33
66373;SHT30;53168;51.146;17.120;2022-08-19T02:43:38;23.29;64.18
66373;SHT30;53168;51.146;17.120;2022-08-19T02:46:32;23.25;64.43
66373;SHT30;53168;51.146;17.120;2022-08-19T02:49:06;23.20;64.54
66373;SHT30;53168;51.146;17.120;2022-08-19T02:51:41;23.16;64.49
66373;SHT30;53168;51.146;17.120;2022-08-19T02:54:16;23.14;64.59
66373;SHT30;53168;51.146;17.120;2022-08-19T02:56:50;23.11;64.49
66373;SHT30;53168;51.146;17.120;2022-08-19T02:59:23;23.11;64.61
66373;SHT30;53168;51.146;17.120;2022-08-19T03:01:59;23.11;64.54
66373;SHT30;53168;51.146;17.120;2022-08-19T03:04:37;23.08;64.89
66373;SHT30;53168;51.146;17.120;2022-08-19T03:07:12;23.03;64.80
66373;SHT30;53168;51.146;17.120;2022-08-19T03:09:47;23.01;64.87
66373;SHT30;53168;51.146;17.120;2022-08-19T03:12:21;22.97;64.99
66373;SHT30;53168;51.146;17.120;2022-08-19T03:14:54;22.94;64.91
66373;SHT30;53168;51.146;17.120;2022-08-19T03:17:29;22.94;65.07
66373;SHT30;53168;51.146;17.120;2022-08-19T03:20:03;22.95;65.15
66373;SHT30;53168;51.146;17.120;2022-08-19T03:22:38;22.92;65.32
66373;SHT30;53168;51.146;17.120;2022-08-19T03:25:11;22.90;65.14
66373;SHT30;53168;51.146;17.120;2022-08-19T03:27:45;22.89;65.19
66373;SHT30;53168;51.146;17.120;2022-08-19T03:30:18;22.88;65.17
66373;SHT30;53168;51.146;17.120;2022-08-19T03:32:52;22.84;65.36
66373;SHT30;53168;51.146;17.120;2022-08-19T03:35:27;22.77;65.71
66373;SHT30;53168;51.146;17.120;2022-08-19T03:38:01;22.72;65.64
66373;SHT30;53168;51.146;17.120;2022-08-19T03:40:37;22.69;65.65
66373;SHT30;53168;51.146;17.120;2022-08-19T03:43:11;22.65;65.88
66373;SHT30;53168;51.146;17.120;2022-08-19T03:45:46;22.60;66.12
66373;SHT30;53168;51.146;17.120;2022-08-19T03:48:29;22.55;66.05
66373;SHT30;53168;51.146;17.120;2022-08-19T03:51:04;22.49;66.32
66373;SHT30;53168;51.146;17.120;2022-08-19T03:53:59;22.45;66.40
66373;SHT30;53168;51.146;17.120;2022-08-19T03:56:36;22.39;66.65
66373;SHT30;53168;51.146;17.120;2022-08-19T03:59:13;22.37;66.67
66373;SHT30;53168;51.146;17.120;2022-08-19T04:01:49;22.35;66.67
66373;SHT30;53168;51.146;17.120;2022-08-19T04:04:23;22.36;66.77
66373;SHT30;53168;51.146;17.120;2022-08-19T04:06:59;22.37;66.96
66373;SHT30;53168;51.146;17.120;2022-08-19T04:09:34;22.38;67.10
66373;SHT30;53168;51.146;17.120;2022-08-19T04:12:09;22.39;66.99
66373;SHT30;53168;51.146;17.120;2022-08-19T04:14:43;22.40;66.99
66373;SHT30;53168;51.146;17.120;2022-08-19T04:17:17;22.42;67.09
66373;SHT30;53168;51.146;17.120;2022-08-19T04:19:51;22.43;67.08
66373;SHT30;53168;51.146;17.120;2022-08-19T04:22:24;22.47;67.09
66373;SHT30;53168;51.146;17.120;2022-08-19T04:24:58;22.51;66.94
66373;SHT30;53168;51.146;17.120;2022-08-19T04:27:32;22.61;67.00
66373;SHT30;53168;51.146;17.120;2022-08-19T04:30:06;22.66;67.03
66373;SHT30;53168;51.146;17.120;2022-08-19T04:32:42;22.71;67.14
66373;SHT30;53168;51.146;17.120;2022-08-19T04:35:15;22.73;67.17
66373;SHT30;53168;51.146;17.120;2022-08-19T04:37:52;22.75;67.25
66373;SHT30;53168;51.146;17.120;2022-08-19T04:40:26;22.78;67.43
66373;SHT30;53168;51.146;17.120;2022-08-19T04:43:16;22.83;67.45
66373;SHT30;53168;51.146;17.120;2022-08-19T04:45:54;22.87;67.47
66373;SHT30;53168;51.146;17.120;2022-08-19T04:48:29;22.89;67.55
66373;SHT30;53168;51.146;17.120;2022-08-19T04:51:05;22.91;67.69
66373;SHT30;53168;51.146;17.120;2022-08-19T04:53:42;22.94;67.68
66373;SHT30;53168;51.146;17.120;2022-08-19T04:56:16;22.95;67.64
66373;SHT30;53168;51.146;17.120;2022-08-19T04:58:55;22.99;67.86
66373;SHT30;53168;51.146;17.120;2022-08-19T05:01:32;23.03;67.47
66373;SHT30;53168;51.146;17.120;2022-08-19T05:04:07;23.08;67.52
66373;SHT30;53168;51.146;17.120;2022-08-19T05:06:41;23.13;67.56
66373;SHT30;53168;51.146;17.120;2022-08-19T05:09:16;23.18;67.55
66373;SHT30;53168;51.146;17.120;2022-08-19T05:11:50;23.21;67.48
66373;SHT30;53168;51.146;17.120;2022-08-19T05:14:23;23.25;67.42
66373;SHT30;53168;51.146;17.120;2022-08-19T05:16:58;23.27;67.48
66373;SHT30;53168;51.146;17.120;2022-08-19T05:19:52;23.33;67.22
66373;SHT30;53168;51.146;17.120;2022-08-19T05:22:43;23.41;67.40
66373;SHT30;53168;51.146;17.120;2022-08-19T05:25:22;23.48;67.21
66373;SHT30;53168;51.146;17.120;2022-08-19T05:27:55;23.53;67.32
66373;SHT30;53168;51.146;17.120;2022-08-19T05:30:28;23.57;67.37
66373;SHT30;53168;51.146;17.120;2022-08-19T05:33:15;23.60;67.25
66373;SHT30;53168;51.146;17.120;2022-08-19T05:35:49;23.63;67.35
66373;SHT30;53168;51.146;17.120;2022-08-19T05:38:22;23.67;67.47
66373;SHT30;53168;51.146;17.120;2022-08-19T05:40:56;23.71;67.43
66373;SHT30;53168;51.146;17.120;2022-08-19T05:43:29;23.75;67.32
66373;SHT30;53168;51.146;17.120;2022-08-19T05:46:03;23.80;67.24
66373;SHT30;53168;51.146;17.120;2022-08-19T05:48:37;23.86;67.36
66373;SHT30;53168;51.146;17.120;2022-08-19T05:51:10;23.88;67.30
66373;SHT30;53168;51.146;17.120;2022-08-19T05:53:45;23.92;67.30
66373;SHT30;53168;51.146;17.120;2022-08-19T05:56:19;23.98;67.29
66373;SHT30;53168;51.146;17.120;2022-08-19T05:58:53;24.02;67.25
66373;SHT30;53168;51.146;17.120;2022-08-19T06:01:27;24.04;67.21
66373;SHT30;53168;51.146;17.120;2022-08-19T06:04:00;24.06;67.12
66373;SHT30;53168;51.146;17.120;2022-08-19T06:06:35;24.14;67.07
66373;SHT30;53168;51.146;17.120;2022-08-19T06:09:09;24.22;66.96
66373;SHT30;53168;51.146;17.120;2022-08-19T06:11:44;24.31;66.79
66373;SHT30;53168;51.146;17.120;2022-08-19T06:14:24;24.40;66.70
66373;SHT30;53168;51.146;17.120;2022-08-19T06:17:01;24.49;66.51
66373;SHT30;53168;51.146;17.120;2022-08-19T06:19:35;24.52;66.38
66373;SHT30;53168;51.146;17.120;2022-08-19T06:22:09;24.54;66.25
66373;SHT30;53168;51.146;17.120;2022-08-19T06:24:46;24.59;66.28
66373;SHT30;53168;51.146;17.120;2022-08-19T06:27:22;24.65;66.33
66373;SHT30;53168;51.146;17.120;2022-08-19T06:29:56;24.69;66.21
66373;SHT30;53168;51.146;17.120;2022-08-19T06:32:29;24.72;66.12
66373;SHT30;53168;51.146;17.120;2022-08-19T06:35:08;24.79;66.19
66373;SHT30;53168;51.146;17.120;2022-08-19T06:37:43;24.87;66.19
66373;SHT30;53168;51.146;17.120;2022-08-19T06:40:16;24.96;66.01
66373;SHT30;53168;51.146;17.120;2022-08-19T06:42:50;25.03;65.82
66373;SHT30;53168;51.146;17.120;2022-08-19T06:45:25;25.10;65.74
66373;SHT30;53168;51.146;17.120;2022-08-19T06:48:03;25.17;65.60
66373;SHT30;53168;51.146;17.120;2022-08-19T06:50:39;25.24;65.51
66373;SHT30;53168;51.146;17.120;2022-08-19T06:53:13;25.29;65.33
66373;SHT30;53168;51.146;17.120;2022-08-19T06:55:46;25.34;65.24
66373;SHT30;53168;51.146;17.120;2022-08-19T06:58:23;25.40;65.10
66373;SHT30;53168;51.146;17.120;2022-08-19T07:01:01;25.44;64.98
66373;SHT30;53168;51.146;17.120;2022-08-19T07:03:37;25.50;64.92
66373;SHT30;53168;51.146;17.120;2022-08-19T07:06:11;25.60;65.13
66373;SHT30;53168;51.146;17.120;2022-08-19T07:09:09;25.77;64.79
66373;SHT30;53168;51.146;17.120;2022-08-19T07:11:47;25.89;64.04
66373;SHT30;53168;51.146;17.120;2022-08-19T07:14:24;25.98;63.44
66373;SHT30;53168;51.146;17.120;2022-08-19T07:16:58;26.08;63.39
66373;SHT30;53168;51.146;17.120;2022-08-19T07:19:33;26.19;63.24
66373;SHT30;53168;51.146;17.120;2022-08-19T07:22:08;26.31;62.75
66373;SHT30;53168;51.146;17.120;2022-08-19T07:24:45;26.40;62.25
66373;SHT30;53168;51.146;17.120;2022-08-19T07:27:19;26.50;62.07
66373;SHT30;53168;51.146;17.120;2022-08-19T07:29:53;26.60;61.77
66373;SHT30;53168;51.146;17.120;2022-08-19T07:32:27;26.67;61.46
66373;SHT30;53168;51.146;17.120;2022-08-19T07:35:01;26.74;61.43
66373;SHT30;53168;51.146;17.120;2022-08-19T07:37:36;26.85;61.27
66373;SHT30;53168;51.146;17.120;2022-08-19T07:40:13;26.96;60.87
66373;SHT30;53168;51.146;17.120;2022-08-19T07:42:46;27.09;60.54
66373;SHT30;53168;51.146;17.120;2022-08-19T07:45:20;27.19;60.04
66373;SHT30;53168;51.146;17.120;2022-08-19T07:47:53;27.25;59.64
66373;SHT30;53168;51.146;17.120;2022-08-19T07:50:28;27.33;59.60
66373;SHT30;53168;51.146;17.120;2022-08-19T07:53:01;27.43;59.36
66373;SHT30;53168;51.146;17.120;2022-08-19T07:55:35;27.54;59.16
66373;SHT30;53168;51.146;17.120;2022-08-19T07:58:12;27.66;58.46
66373;SHT30;53168;51.146;17.120;2022-08-19T08:00:50;27.77;58.51
66373;SHT30;53168;51.146;17.120;2022-08-19T08:03:24;27.89;58.12
66373;SHT30;53168;51.146;17.120;2022-08-19T08:06:13;28.04;57.89
66373;SHT30;53168;51.146;17.120;2022-08-19T08:09:05;28.31;57.74
66373;SHT30;53168;51.146;17.120;2022-08-19T08:11:47;28.56;57.09
66373;SHT30;53168;51.146;17.120;2022-08-19T08:14:24;28.81;57.07
66373;SHT30;53168;51.146;17.120;2022-08-19T08:17:05;29.06;56.28
66373;SHT30;53168;51.146;17.120;2022-08-19T08:19:40;29.23;55.55
66373;SHT30;53168;51.146;17.120;2022-08-19T08:22:25;29.32;54.98
66373;SHT30;53168;51.146;17.120;2022-08-19T08:25:17;29.41;54.61
66373;SHT30;53168;51.146;17.120;2022-08-19T08:27:53;29.46;54.42
66373;SHT30;53168;51.146;17.120;2022-08-19T08:30:29;29.49;54.50
66373;SHT30;53168;51.146;17.120;2022-08-19T08:33:04;29.57;54.07
66373;SHT30;53168;51.146;17.120;2022-08-19T08:35:39;29.63;53.57
66373;SHT30;53168;51.146;17.120;2022-08-19T08:38:14;29.74;53.60
66373;SHT30;53168;51.146;17.120;2022-08-19T08:40:49;29.88;53.37
66373;SHT30;53168;51.146;17.120;2022-08-19T08:43:35;30.05;52.65
66373;SHT30;53168;51.146;17.120;2022-08-19T08:46:15;30.16;52.87
66373;SHT30;53168;51.146;17.120;2022-08-19T08:49:02;30.28;52.72
66373;SHT30;53168;51.146;17.120;2022-08-19T08:51:57;30.38;52.65
66373;SHT30;53168;51.146;17.120;2022-08-19T08:54:37;30.46;51.59
66373;SHT30;53168;51.146;17.120;2022-08-19T08:57:26;30.52;51.52
66373;SHT30;53168;51.146;17.120;2022-08-19T09:00:11;30.56;51.99
66373;SHT30;53168;51.146;17.120;2022-08-19T09:02:52;30.63;51.78
66373;SHT30;53168;51.146;17.120;2022-08-19T09:05:30;30.70;50.69
66373;SHT30;53168;51.146;17.120;2022-08-19T09:08:18;30.70;50.12
66373;SHT30;53168;51.146;17.120;2022-08-19T09:11:03;30.71;50.52
66373;SHT30;53168;51.146;17.120;2022-08-19T09:13:44;30.76;50.93
66373;SHT30;53168;51.146;17.120;2022-08-19T09:16:33;30.80;50.63
66373;SHT30;53168;51.146;17.120;2022-08-19T09:19:09;30.89;50.49
66373;SHT30;53168;51.146;17.120;2022-08-19T09:21:50;31.03;50.04
66373;SHT30;53168;51.146;17.120;2022-08-19T09:24:24;31.10;49.69
66373;SHT30;53168;51.146;17.120;2022-08-19T09:26:59;31.14;49.50
66373;SHT30;53168;51.146;17.120;2022-08-19T09:29:46;31.19;49.37
66373;SHT30;53168;51.146;17.120;2022-08-19T09:32:22;31.22;49.53
66373;SHT30;53168;51.146;17.120;2022-08-19T09:34:56;31.28;49.67
66373;SHT30;53168;51.146;17.120;2022-08-19T09:37:31;31.28;48.91
66373;SHT30;53168;51.146;17.120;2022-08-19T09:40:06;31.26;48.96
66373;SHT30;53168;51.146;17.120;2022-08-19T09:42:43;31.24;48.27
66373;SHT30;53168;51.146;17.120;2022-08-19T09:45:20;31.28;48.72
66373;SHT30;53168;51.146;17.120;2022-08-19T09:47:54;31.33;49.19
66373;SHT30;53168;51.146;17.120;2022-08-19T09:50:27;31.49;49.42
66373;SHT30;53168;51.146;17.120;2022-08-19T09:53:04;31.62;48.47
66373;SHT30;53168;51.146;17.120;2022-08-19T09:55:42;31.76;48.37
66373;SHT30;53168;51.146;17.120;2022-08-19T09:58:16;31.78;47.81
66373;SHT30;53168;51.146;17.120;2022-08-19T10:00:54;31.82;47.78
66373;SHT30;53168;51.146;17.120;2022-08-19T10:03:29;31.87;47.19
66373;SHT30;53168;51.146;17.120;2022-08-19T10:06:05;31.89;46.72
66373;SHT30;53168;51.146;17.120;2022-08-19T10:08:45;32.00;46.92
66373;SHT30;53168;51.146;17.120;2022-08-19T10:11:20;32.16;47.65
66373;SHT30;53168;51.146;17.120;2022-08-19T10:14:02;32.30;46.80
66373;SHT30;53168;51.146;17.120;2022-08-19T10:16:36;32.35;46.78
66373;SHT30;53168;51.146;17.120;2022-08-19T10:19:11;32.42;46.73
66373;SHT30;53168;51.146;17.120;2022-08-19T10:21:54;32.51;46.65
66373;SHT30;53168;51.146;17.120;2022-08-19T10:24:28;32.63;46.23
66373;SHT30;53168;51.146;17.120;2022-08-19T10:27:02;32.68;45.90
66373;SHT30;53168;51.146;17.120;2022-08-19T10:29:36;32.80;45.78
66373;SHT30;53168;51.146;17.120;2022-08-19T10:32:14;32.94;45.21
66373;SHT30;53168;51.146;17.120;2022-08-19T10:35:02;33.08;44.55
66373;SHT30;53168;51.146;17.120;2022-08-19T10:37:37;33.26;44.05
66373;SHT30;53168;51.146;17.120;2022-08-19T10:40:26;33.42;43.68
66373;SHT30;53168;51.146;17.120;2022-08-19T10:43:00;33.51;43.19
66373;SHT30;53168;51.146;17.120;2022-08-19T10:45:33;33.58;42.99
66373;SHT30;53168;51.146;17.120;2022-08-19T10:48:20;33.64;43.50
66373;SHT30;53168;51.146;17.120;2022-08-19T10:50:55;33.68;42.43
66373;SHT30;53168;51.146;17.120;2022-08-19T10:53:51;33.80;42.02
66373;SHT30;53168;51.146;17.120;2022-08-19T10:56:25;33.91;41.70
66373;SHT30;53168;51.146;17.120;2022-08-19T10:59:18;34.07;42.47
66373;SHT30;53168;51.146;17.120;2022-08-19T11:02:02;34.25;42.05
66373;SHT30;53168;51.146;17.120;2022-08-19T11:04:40;34.28;40.77
66373;SHT30;53168;51.146;17.120;2022-08-19T11:07:17;34.32;41.21
66373;SHT30;53168;51.146;17.120;2022-08-19T11:09:50;34.42;40.82
66373;SHT30;53168;51.146;17.120;2022-08-19T11:12:23;34.53;40.07
66373;SHT30;53168;51.146;17.120;2022-08-19T11:14:57;34.55;40.33
66373;SHT30;53168;51.146;17.120;2022-08-19T11:17:30;34.62;39.14
66373;SHT30;53168;51.146;17.120;2022-08-19T11:20:05;34.65;39.57
66373;SHT30;53168;51.146;17.120;2022-08-19T11:22:41;34.81;39.45
66373;SHT30;53168;51.146;17.120;2022-08-19T11:25:16;35.00;40.10
66373;SHT30;53168;51.146;17.120;2022-08-19T11:27:51;35.13;39.16
66373;SHT30;53168;51.146;17.120;2022-08-19T11:30:24;35.10;38.47
66373;SHT30;53168;51.146;17.120;2022-08-19T11:32:58;35.15;38.08
66373;SHT30;53168;51.146;17.120;2022-08-19T11:35:31;35.31;38.81
66373;SHT30;53168;51.146;17.120;2022-08-19T11:38:08;35.50;38.33
66373;SHT30;53168;51.146;17.120;2022-08-19T11:40:43;35.69;38.07
66373;SHT30;53168;51.146;17.120;2022-08-19T11:43:23;35.79;37.76
66373;SHT30;53168;51.146;17.120;2022-08-19T11:46:03;35.86;37.54
66373;SHT30;53168;51.146;17.120;2022-08-19T11:48:39;35.99;37.43
66373;SHT30;53168;51.146;17.120;2022-08-19T11:51:14;36.00;37.35
66373;SHT30;53168;51.146;17.120;2022-08-19T11:53:51;35.92;37.12
66373;SHT30;53168;51.146;17.120;2022-08-19T11:56:28;35.82;36.65
66373;SHT30;53168;51.146;17.120;2022-08-19T11:59:01;35.95;37.26
66373;SHT30;53168;51.146;17.120;2022-08-19T12:01:42;36.14;36.09
66373;SHT30;53168;51.146;17.120;2022-08-19T12:04:15;36.33;36.02
66373;SHT30;53168;51.146;17.120;2022-08-19T12:06:48;36.76;35.36
66373;SHT30;53168;51.146;17.120;2022-08-19T12:09:22;37.33;35.09
66373;SHT30;53168;51.146;17.120;2022-08-19T12:11:58;38.64;34.15
66373;SHT30;53168;51.146;17.120;2022-08-19T12:14:32;39.93;34.02
66373;SHT30;53168;51.146;17.120;2022-08-19T12:17:05;40.97;32.19
66373;SHT30;53168;51.146;17.120;2022-08-19T12:19:41;41.69;30.93
66373;SHT30;53168;51.146;17.120;2022-08-19T12:22:15;42.28;30.47
66373;SHT30;53168;51.146;17.120;2022-08-19T12:24:49;42.70;29.27
66373;SHT30;53168;51.146;17.120;2022-08-19T12:27:23;42.73;28.49
66373;SHT30;53168;51.146;17.120;2022-08-19T12:30:10;42.98;27.85
66373;SHT30;53168;51.146;17.120;2022-08-19T12:32:45;43.19;27.46
66373;SHT30;53168;51.146;17.120;2022-08-19T12:35:19;43.46;27.19
66373;SHT30;53168;51.146;17.120;2022-08-19T12:37:53;43.90;26.54
66373;SHT30;53168;51.146;17.120;2022-08-19T12:40:27;44.37;26.02
66373;SHT30;53168;51.146;17.120;2022-08-19T12:43:00;44.93;25.25
66373;SHT30;53168;51.146;17.120;2022-08-19T12:45:35;45.34;24.73
66373;SHT30;53168;51.146;17.120;2022-08-19T12:48:10;45.54;23.62
66373;SHT30;53168;51.146;17.120;2022-08-19T12:51:05;45.44;23.36
66373;SHT30;53168;51.146;17.120;2022-08-19T12:53:41;45.60;23.52
66373;SHT30;53168;51.146;17.120;2022-08-19T12:56:15;45.83;23.29
66373;SHT30;53168;51.146;17.120;2022-08-19T12:58:51;46.00;23.43
66373;SHT30;53168;51.146;17.120;2022-08-19T13:01:24;46.42;23.03
66373;SHT30;53168;51.146;17.120;2022-08-19T13:04:01;46.57;21.80
66373;SHT30;53168;51.146;17.120;2022-08-19T13:06:34;46.32;21.96
66373;SHT30;53168;51.146;17.120;2022-08-19T13:09:08;46.44;22.14
66373;SHT30;53168;51.146;17.120;2022-08-19T13:11:41;46.46;21.91
66373;SHT30;53168;51.146;17.120;2022-08-19T13:14:15;46.38;22.02
66373;SHT30;53168;51.146;17.120;2022-08-19T13:16:48;46.29;21.24
66373;SHT30;53168;51.146;17.120;2022-08-19T13:19:22;45.88;21.52
66373;SHT30;53168;51.146;17.120;2022-08-19T13:21:55;45.70;21.35
66373;SHT30;53168;51.146;17.120;2022-08-19T13:24:29;45.59;21.24
66373;SHT30;53168;51.146;17.120;2022-08-19T13:27:02;45.67;21.62
66373;SHT30;53168;51.146;17.120;2022-08-19T13:29:36;45.96;21.57
66373;SHT30;53168;51.146;17.120;2022-08-19T13:32:29;45.94;21.24
66373;SHT30;53168;51.146;17.120;2022-08-19T13:35:20;46.17;21.45
66373;SHT30;53168;51.146;17.120;2022-08-19T13:37:53;46.50;21.44
66373;SHT30;53168;51.146;17.120;2022-08-19T13:40:26;46.45;21.49
66373;SHT30;53168;51.146;17.120;2022-08-19T13:43:04;46.44;21.32
66373;SHT30;53168;51.146;17.120;2022-08-19T13:45:52;46.33;20.94
66373;SHT30;53168;51.146;17.120;2022-08-19T13:48:26;45.14;21.32
66373;SHT30;53168;51.146;17.120;2022-08-19T13:50:59;43.97;21.48
66373;SHT30;53168;51.146;17.120;2022-08-19T13:53:38;42.63;21.99
66373;SHT30;53168;51.146;17.120;2022-08-19T13:56:17;41.46;22.91
66373;SHT30;53168;51.146;17.120;2022-08-19T13:58:54;40.25;23.86
66373;SHT30;53168;51.146;17.120;2022-08-19T14:01:27;39.51;24.56
66373;SHT30;53168;51.146;17.120;2022-08-19T14:04:01;39.09;25.45
66373;SHT30;53168;51.146;17.120;2022-08-19T14:06:35;38.82;25.80
66373;SHT30;53168;51.146;17.120;2022-08-19T14:09:08;38.45;26.08
66373;SHT30;53168;51.146;17.120;2022-08-19T14:11:41;37.88;26.46
66373;SHT30;53168;51.146;17.120;2022-08-19T14:14:15;37.58;26.81
66373;SHT30;53168;51.146;17.120;2022-08-19T14:16:48;37.31;27.12
66373;SHT30;53168;51.146;17.120;2022-08-19T14:19:21;37.03;27.89
66373;SHT30;53168;51.146;17.120;2022-08-19T14:21:58;36.65;28.24
66373;SHT30;53168;51.146;17.120;2022-08-19T14:24:31;36.39;29.09
66373;SHT30;53168;51.146;17.120;2022-08-19T14:27:06;36.05;29.87
66373;SHT30;53168;51.146;17.120;2022-08-19T14:29:40;35.76;30.59
66373;SHT30;53168;51.146;17.120;2022-08-19T14:32:14;35.50;30.66
66373;SHT30;53168;51.146;17.120;2022-08-19T14:34:47;35.28;31.13
66373;SHT30;53168;51.146;17.120;2022-08-19T14:37:21;35.05;31.51
66373;SHT30;53168;51.146;17.120;2022-08-19T14:39:56;34.90;31.62
66373;SHT30;53168;51.146;17.120;2022-08-19T14:42:30;34.78;32.32
66373;SHT30;53168;51.146;17.120;2022-08-19T14:45:05;34.67;32.25
66373;SHT30;53168;51.146;17.120;2022-08-19T14:47:41;34.60;32.66
66373;SHT30;53168;51.146;17.120;2022-08-19T14:50:14;34.50;33.25
66373;SHT30;53168;51.146;17.120;2022-08-19T14:52:49;34.36;33.44
66373;SHT30;53168;51.146;17.120;2022-08-19T14:55:42;34.17;33.97
66373;SHT30;53168;51.146;17.120;2022-08-19T14:58:15;33.97;34.40
66373;SHT30;53168;51.146;17.120;2022-08-19T15:00:58;33.82;34.83
66373;SHT30;53168;51.146;17.120;2022-08-19T15:03:43;33.61;35.79
66373;SHT30;53168;51.146;17.120;2022-08-19T15:06:17;33.40;36.28
66373;SHT30;53168;51.146;17.120;2022-08-19T15:08:52;33.21;36.51
66373;SHT30;53168;51.146;17.120;2022-08-19T15:11:31;33.08;36.85
66373;SHT30;53168;51.146;17.120;2022-08-19T15:14:05;32.99;37.01
66373;SHT30;53168;51.146;17.120;2022-08-19T15:16:39;32.92;37.47
66373;SHT30;53168;51.146;17.120;2022-08-19T15:19:12;32.79;37.74
66373;SHT30;53168;51.146;17.120;2022-08-19T15:21:46;32.66;38.38
66373;SHT30;53168;51.146;17.120;2022-08-19T15:24:20;32.53;39.14
66373;SHT30;53168;51.146;17.120;2022-08-19T15:26:54;32.35;40.40
66373;SHT30;53168;51.146;17.120;2022-08-19T15:29:27;32.19;40.88
66373;SHT30;53168;51.146;17.120;2022-08-19T15:32:01;32.03;41.32
66373;SHT30;53168;51.146;17.120;2022-08-19T15:34:36;31.89;41.80
66373;SHT30;53168;51.146;17.120;2022-08-19T15:37:09;31.72;42.76
66373;SHT30;53168;51.146;17.120;2022-08-19T15:39:42;31.56;43.08
66373;SHT30;53168;51.146;17.120;2022-08-19T15:42:16;31.36;44.47
66373;SHT30;53168;51.146;17.120;2022-08-19T15:44:58;31.14;44.54
66373;SHT30;53168;51.146;17.120;2022-08-19T15:47:31;30.97;44.82
66373;SHT30;53168;51.146;17.120;2022-08-19T15:53:02;30.77;45.35
66373;SHT30;53168;51.146;17.120;2022-08-19T15:55:43;30.67;45.91
66373;SHT30;53168;51.146;17.120;2022-08-19T15:58:19;30.59;46.22
66373;SHT30;53168;51.146;17.120;2022-08-19T16:01:12;30.45;46.76
66373;SHT30;53168;51.146;17.120;2022-08-19T16:04:14;30.28;47.28
66373;SHT30;53168;51.146;17.120;2022-08-19T16:07:06;30.16;47.42
66373;SHT30;53168;51.146;17.120;2022-08-19T16:09:40;30.06;48.20
66373;SHT30;53168;51.146;17.120;2022-08-19T16:12:13;29.96;48.39
66373;SHT30;53168;51.146;17.120;2022-08-19T16:14:47;29.90;48.21
66373;SHT30;53168;51.146;17.120;2022-08-19T16:17:21;29.84;49.18
66373;SHT30;53168;51.146;17.120;2022-08-19T16:19:54;29.77;49.20